Time;durP1;ratioP1;P1;durP2;ratioP2;P2;SDS_P1;SDS_P2;PMS_P1;PMS_P2;Temp;Humidity;BMP_temperature;BMP_pressure;BME280_temperature;BME280_humidity;BME280_pressure;Samples;Min_cycle;Max_cycle;Signal;HPM_P1;HPM_P2
2023/12/16 00:00:28;;;;;;;13.50;4.30;;;;;;;3.71;100.00;101135.45;109111;1257;59123;-63
2023/12/16 00:03:35;;;;;;;11.10;4.10;;;;;;;3.72;100.00;101137.16;109112;1257;73069;-62
2023/12/16 00:06:23;;;;;;;9.60;4.00;;;;;;;3.73;100.00;101137.50;109038;1257;66950;-62
2023/12/16 00:09:11;;;;;;;10.70;4.10;;;;;;;3.74;100.00;101141.50;109068;1257;73236;-62
2023/12/16 00:11:58;;;;;;;9.80;3.60;;;;;;;3.73;100.00;101133.63;109137;1257;59699;-63
2023/12/16 00:14:47;;;;;;;10.70;3.20;;;;;;;3.76;100.00;101135.83;108961;1257;60044;-62
2023/12/16 00:17:35;;;;;;;12.50;3.20;;;;;;;3.76;100.00;101143.19;109002;1257;71436;-62
2023/12/16 00:20:27;;;;;;;12.80;3.20;;;;;;;3.76;100.00;101151.08;109100;1258;67742;-63
2023/12/16 00:23:14;;;;;;;11.20;3.10;;;;;;;3.76;100.00;101152.48;109147;1257;72580;-64
2023/12/16 00:26:03;;;;;;;12.20;3.00;;;;;;;3.79;100.00;101157.52;109108;1257;59842;-62
2023/12/16 00:28:51;;;;;;;12.40;3.00;;;;;;;3.80;100.00;101164.48;109079;1258;60341;-62
2023/12/16 00:31:39;;;;;;;12.70;3.00;;;;;;;3.81;100.00;101162.34;108965;1259;71671;-62
2023/12/16 00:34:27;;;;;;;9.70;2.90;;;;;;;3.81;100.00;101149.52;109094;1258;68833;-63
2023/12/16 00:37:15;;;;;;;9.50;2.50;;;;;;;3.81;100.00;101144.09;109008;1258;72895;-63
2023/12/16 00:40:04;;;;;;;11.90;2.60;;;;;;;3.81;100.00;101143.03;108983;1259;58745;-61
2023/12/16 00:42:52;;;;;;;10.20;2.90;;;;;;;3.82;100.00;101140.39;109105;1258;60066;-62
2023/12/16 00:45:40;;;;;;;10.40;2.90;;;;;;;3.83;100.00;101145.45;109089;1258;72905;-63
2023/12/16 00:48:29;;;;;;;11.50;2.90;;;;;;;3.84;100.00;101140.13;109069;1258;66656;-63
2023/12/16 00:51:19;;;;;;;12.10;3.40;;;;;;;3.84;100.00;101134.52;109121;1257;72629;-62
2023/12/16 00:54:08;;;;;;;8.70;2.50;;;;;;;3.84;100.00;101131.69;109106;1257;59327;-64
2023/12/16 00:56:56;;;;;;;7.60;2.40;;;;;;;3.87;100.00;101130.19;109046;1257;59414;-62
2023/12/16 00:59:44;;;;;;;14.10;3.00;;;;;;;3.88;100.00;101131.39;109092;1257;74259;-64
2023/12/16 01:02:32;;;;;;;10.90;2.80;;;;;;;3.90;100.00;101127.66;109214;1257;67330;-62
2023/12/16 01:05:20;;;;;;;9.60;2.80;;;;;;;3.91;100.00;101126.90;109098;1257;72726;-63
2023/12/16 01:08:07;;;;;;;9.80;2.20;;;;;;;3.91;100.00;101127.08;108450;1257;1002129;-61
2023/12/16 01:10:55;;;;;;;9.80;2.50;;;;;;;3.91;100.00;101123.39;109189;1257;59129;-65
2023/12/16 01:13:43;;;;;;;11.30;3.10;;;;;;;3.92;100.00;101117.41;109103;1257;72961;-69
2023/12/16 01:16:31;;;;;;;16.20;3.30;;;;;;;3.94;100.00;101120.67;109122;1257;68925;-62
2023/12/16 01:19:20;;;;;;;15.30;3.70;;;;;;;3.96;100.00;101124.46;109015;1257;73416;-61
2023/12/16 01:22:08;;;;;;;14.90;3.30;;;;;;;3.98;100.00;101124.06;109032;1257;59365;-62
2023/12/16 01:24:56;;;;;;;14.50;4.00;;;;;;;3.99;100.00;101123.31;109198;1257;61059;-62
2023/12/16 01:27:44;;;;;;;13.30;3.30;;;;;;;3.96;100.00;101117.27;109199;1257;72166;-61
2023/12/16 01:30:33;;;;;;;11.80;3.30;;;;;;;3.98;100.00;101120.17;109166;1257;66405;-64
2023/12/16 01:33:22;;;;;;;14.20;3.20;;;;;;;3.97;100.00;101117.73;109085;1257;72562;-65
2023/12/16 01:36:10;;;;;;;11.50;2.90;;;;;;;3.97;100.00;101113.52;108976;1257;59389;-64
2023/12/16 01:38:57;;;;;;;11.40;3.60;;;;;;;3.97;100.00;101114.59;109035;1257;60138;-63
2023/12/16 01:41:45;;;;;;;12.30;3.30;;;;;;;3.97;100.00;101110.92;109127;1257;71590;-67
2023/12/16 01:44:34;;;;;;;11.20;3.00;;;;;;;3.97;100.00;101102.50;109080;1257;67800;-62
2023/12/16 01:47:22;;;;;;;13.30;3.10;;;;;;;3.95;100.00;101104.30;109081;1257;72808;-62
2023/12/16 01:50:12;;;;;;;13.60;3.20;;;;;;;3.97;100.00;101111.96;109014;1257;58428;-63
2023/12/16 01:53:04;;;;;;;15.50;3.30;;;;;;;3.99;100.00;101121.54;109176;1257;59888;-63
2023/12/16 01:55:52;;;;;;;12.40;3.70;;;;;;;4.01;100.00;101128.15;109077;1256;72882;-62
2023/12/16 01:58:41;;;;;;;12.60;2.70;;;;;;;4.01;100.00;101127.11;109135;1257;66657;-63
2023/12/16 02:01:29;;;;;;;11.30;3.10;;;;;;;4.03;100.00;101128.98;109073;1257;71098;-62
2023/12/16 02:04:19;;;;;;;13.50;2.80;;;;;;;4.04;100.00;101142.27;109063;1257;58793;-63
2023/12/16 02:07:07;;;;;;;14.40;2.90;;;;;;;4.04;100.00;101146.84;109175;1257;60254;-62
2023/12/16 02:09:55;;;;;;;11.90;2.90;;;;;;;4.06;100.00;101144.31;109183;1257;74045;-63
2023/12/16 02:12:43;;;;;;;16.60;3.20;;;;;;;4.07;100.00;101139.73;109065;1257;68698;-61
2023/12/16 02:15:31;;;;;;;18.10;3.80;;;;;;;4.02;100.00;101125.66;109170;1256;73524;-62
2023/12/16 02:18:19;;;;;;;15.70;4.10;;;;;;;4.07;100.00;101125.83;109111;1257;57960;-61
2023/12/16 02:21:07;;;;;;;13.90;3.00;;;;;;;4.08;100.00;101121.95;109135;1257;60207;-61
2023/12/16 02:23:56;;;;;;;12.20;3.10;;;;;;;4.09;100.00;101127.19;109119;1256;74022;-62
2023/12/16 02:26:44;;;;;;;16.20;3.30;;;;;;;4.10;100.00;101123.46;109179;1257;67944;-62
2023/12/16 02:29:31;;;;;;;11.80;3.30;;;;;;;4.10;100.00;101137.66;109190;1257;73541;-62
2023/12/16 02:32:19;;;;;;;16.00;3.60;;;;;;;4.11;100.00;101134.48;109138;1257;58030;-63
2023/12/16 02:35:07;;;;;;;11.70;2.80;;;;;;;4.11;100.00;101137.47;109111;1257;60166;-62
2023/12/16 02:37:55;;;;;;;13.30;3.40;;;;;;;4.13;100.00;101140.08;109119;1257;73723;-62
2023/12/16 02:40:43;;;;;;;15.60;2.90;;;;;;;4.11;100.00;101135.73;108983;1257;67985;-62
2023/12/16 02:43:31;;;;;;;11.00;2.10;;;;;;;4.09;100.00;101137.01;109174;1257;72306;-62
2023/12/16 02:46:19;;;;;;;18.20;3.60;;;;;;;4.09;100.00;101137.04;109154;1257;60513;-62
2023/12/16 02:49:07;;;;;;;11.70;2.80;;;;;;;4.10;100.00;101137.70;109184;1257;59973;-63
2023/12/16 02:51:55;;;;;;;14.90;2.60;;;;;;;4.10;100.00;101142.10;109170;1256;74191;-62
2023/12/16 02:54:42;;;;;;;11.90;3.00;;;;;;;4.10;100.00;101150.16;109112;1257;66923;-62
2023/12/16 02:57:30;;;;;;;11.80;2.10;;;;;;;4.08;100.00;101149.19;109156;1257;72348;-61
2023/12/16 03:00:18;;;;;;;15.00;2.50;;;;;;;4.10;100.00;101149.45;109181;1256;59287;-61
2023/12/16 03:03:05;;;;;;;11.30;2.30;;;;;;;4.12;100.00;101149.43;109114;1257;59134;-65
2023/12/16 03:05:53;;;;;;;13.40;2.50;;;;;;;4.09;100.00;101135.27;109166;1257;71798;-61
2023/12/16 03:08:41;;;;;;;13.40;3.00;;;;;;;4.10;100.00;101136.11;109161;1258;67666;-62
2023/12/16 03:11:29;;;;;;;14.30;2.80;;;;;;;4.10;100.00;101136.82;109165;1257;71176;-62
2023/12/16 03:14:17;;;;;;;11.40;2.80;;;;;;;4.11;100.00;101136.78;109161;1261;59553;-62
2023/12/16 03:17:04;;;;;;;13.80;3.10;;;;;;;4.13;100.00;101135.66;109032;1257;60040;-62
2023/12/16 03:19:52;;;;;;;16.30;3.50;;;;;;;4.15;100.00;101139.48;109196;1257;73704;-63
2023/12/16 03:22:40;;;;;;;13.00;2.70;;;;;;;4.16;100.00;101142.77;109186;1257;66285;-63
2023/12/16 03:25:28;;;;;;;14.00;2.60;;;;;;;4.16;100.00;101145.21;109166;1257;73937;-62
2023/12/16 03:28:16;;;;;;;12.80;2.50;;;;;;;4.18;100.00;101149.38;109072;1257;59170;-62
2023/12/16 03:31:04;;;;;;;11.30;2.70;;;;;;;4.17;100.00;101151.17;109105;1257;61061;-65
2023/12/16 03:33:53;;;;;;;13.40;2.50;;;;;;;4.18;100.00;101158.67;109071;1257;72746;-61
2023/12/16 03:36:41;;;;;;;18.00;3.50;;;;;;;4.19;100.00;101161.27;109210;1257;67986;-61
2023/12/16 03:39:29;;;;;;;14.10;2.60;;;;;;;4.21;100.00;101160.51;109144;1257;73716;-62
2023/12/16 03:42:16;;;;;;;15.00;3.50;;;;;;;4.23;100.00;101153.42;109172;1257;58341;-62
2023/12/16 03:45:05;;;;;;;18.20;2.80;;;;;;;4.25;100.00;101153.86;109207;1257;59134;-61
2023/12/16 03:47:53;;;;;;;13.50;2.40;;;;;;;4.26;100.00;101153.84;109158;1257;73377;-61
2023/12/16 03:50:41;;;;;;;12.20;3.10;;;;;;;4.28;100.00;101155.00;109110;1257;69015;-61
2023/12/16 03:53:29;;;;;;;12.40;2.20;;;;;;;4.29;100.00;101156.74;109060;1257;72327;-62
2023/12/16 03:56:17;;;;;;;16.80;3.10;;;;;;;4.30;100.00;101155.64;109094;1257;58750;-64
2023/12/16 03:59:05;;;;;;;10.30;2.60;;;;;;;4.31;100.00;101148.07;109139;1259;58940;-62
2023/12/16 04:01:53;;;;;;;13.80;2.40;;;;;;;4.32;100.00;101149.94;109113;1259;71587;-62
2023/12/16 04:04:41;;;;;;;10.60;2.20;;;;;;;4.32;100.00;101143.61;109095;1260;66326;-64
2023/12/16 04:07:29;;;;;;;14.50;2.60;;;;;;;4.32;100.00;101142.03;108851;1258;179195;-63
2023/12/16 04:10:17;;;;;;;16.20;3.10;;;;;;;4.33;100.00;101142.70;109072;1259;59297;-62
2023/12/16 04:13:05;;;;;;;13.30;2.60;;;;;;;4.33;100.00;101144.65;109073;1257;58973;-64
2023/12/16 04:15:52;;;;;;;13.00;2.20;;;;;;;4.31;100.00;101145.23;109038;1259;72808;-61
2023/12/16 04:18:41;;;;;;;11.50;3.20;;;;;;;4.34;100.00;101160.08;109039;1261;67918;-64
2023/12/16 04:21:29;;;;;;;13.40;2.70;;;;;;;4.30;100.00;101155.29;108952;1257;73812;-62
2023/12/16 04:24:17;;;;;;;13.60;2.70;;;;;;;4.35;100.00;101163.37;109016;1258;58278;-62
2023/12/16 04:27:05;;;;;;;14.10;3.40;;;;;;;4.35;100.00;101163.02;109042;1258;61274;-62
2023/12/16 04:29:53;;;;;;;13.20;2.70;;;;;;;4.33;100.00;101151.51;109082;1258;73019;-62
2023/12/16 04:32:40;;;;;;;17.00;3.00;;;;;;;4.36;100.00;101159.64;109080;1259;67895;-64
2023/12/16 04:35:28;;;;;;;11.50;3.10;;;;;;;4.38;100.00;101162.58;109034;1259;73686;-61
2023/12/16 04:38:16;;;;;;;14.10;3.70;;;;;;;4.35;100.00;101164.77;109028;1258;59288;-64
2023/12/16 04:41:04;;;;;;;14.40;3.20;;;;;;;4.36;100.00;101168.27;109026;1260;60382;-63
2023/12/16 04:43:53;;;;;;;11.70;2.40;;;;;;;4.32;100.00;101160.34;108995;1258;73732;-63
2023/12/16 04:46:40;;;;;;;14.00;2.90;;;;;;;4.34;100.00;101167.98;109049;1258;68162;-63
2023/12/16 04:49:29;;;;;;;15.30;3.10;;;;;;;4.30;100.00;101154.77;109050;1257;71184;-64
2023/12/16 04:52:17;;;;;;;12.10;3.00;;;;;;;4.32;100.00;101164.91;109053;1257;59355;-63
2023/12/16 04:55:06;;;;;;;19.00;3.40;;;;;;;4.30;100.00;101167.77;109064;1257;59026;-63
2023/12/16 04:57:54;;;;;;;13.20;3.80;;;;;;;4.29;100.00;101173.05;109117;1257;73689;-62
2023/12/16 05:00:42;;;;;;;11.60;2.80;;;;;;;4.30;100.00;101180.08;109101;1258;67840;-63
2023/12/16 05:03:33;;;;;;;14.20;2.90;;;;;;;4.30;100.00;101171.11;109085;1260;73245;-62
2023/12/16 05:06:21;;;;;;;21.30;4.20;;;;;;;4.31;100.00;101175.83;108995;1260;59253;-62
2023/12/16 05:09:12;;;;;;;13.50;2.70;;;;;;;4.29;100.00;101168.84;109066;1258;59472;-63
2023/12/16 05:12:00;;;;;;;14.10;3.10;;;;;;;4.32;100.00;101172.27;109007;1258;72801;-64
2023/12/16 05:14:48;;;;;;;12.80;2.80;;;;;;;4.31;100.00;101160.00;109036;1257;66347;-61
2023/12/16 05:17:36;;;;;;;15.00;3.40;;;;;;;4.30;100.00;101153.73;109064;1258;73456;-61
2023/12/16 05:20:25;;;;;;;14.50;3.40;;;;;;;4.30;100.00;101158.63;109053;1261;59193;-66
2023/12/16 05:23:14;;;;;;;13.30;2.90;;;;;;;4.30;100.00;101163.56;109072;1258;59939;-63
2023/12/16 05:26:02;;;;;;;13.50;2.60;;;;;;;4.29;100.00;101166.76;108986;1258;72763;-62
2023/12/16 05:28:51;;;;;;;13.80;3.10;;;;;;;4.31;100.00;101187.77;109061;1257;66634;-65
2023/12/16 05:31:38;;;;;;;17.30;3.10;;;;;;;4.32;100.00;101193.89;109043;1260;72739;-66
2023/12/16 05:34:26;;;;;;;17.20;3.30;;;;;;;4.31;100.00;101193.56;109094;1257;57931;-62
2023/12/16 05:37:14;;;;;;;15.00;3.20;;;;;;;4.32;100.00;101193.54;109099;1258;61554;-63
2023/12/16 05:40:03;;;;;;;12.00;2.50;;;;;;;4.33;100.00;101183.64;109094;1257;73828;-63
2023/12/16 05:42:51;;;;;;;15.20;2.90;;;;;;;4.34;100.00;101177.82;109031;1257;67041;-63
2023/12/16 05:45:39;;;;;;;17.40;3.40;;;;;;;4.34;100.00;101175.88;109131;1257;71954;-62
2023/12/16 05:48:27;;;;;;;12.80;2.70;;;;;;;4.34;100.00;101175.00;109041;1257;59242;-63
2023/12/16 05:51:15;;;;;;;13.00;3.10;;;;;;;4.37;100.00;101186.50;109142;1257;60065;-62
2023/12/16 05:54:03;;;;;;;13.70;3.40;;;;;;;4.37;100.00;101191.58;109006;1257;72122;-63
2023/12/16 05:56:51;;;;;;;17.40;4.40;;;;;;;4.37;100.00;101190.02;109127;1257;69050;-62
2023/12/16 05:59:38;;;;;;;12.90;2.50;;;;;;;4.39;100.00;101189.42;109003;1257;73543;-64
2023/12/16 06:02:26;;;;;;;13.40;2.80;;;;;;;4.38;100.00;101173.46;109011;1257;59284;-64
2023/12/16 06:05:14;;;;;;;14.20;3.30;;;;;;;4.42;100.00;101178.59;109105;1261;61270;-62
2023/12/16 06:08:02;;;;;;;11.50;2.80;;;;;;;4.44;100.00;101185.55;109031;1258;74255;-63
2023/12/16 06:10:49;;;;;;;13.20;2.80;;;;;;;4.45;100.00;101194.33;109004;1260;66376;-62
2023/12/16 06:13:37;;;;;;;12.70;2.80;;;;;;;4.46;100.00;101185.66;108946;1257;73402;-65
2023/12/16 06:16:25;;;;;;;10.70;2.70;;;;;;;4.47;100.00;101173.16;109080;1258;60655;-64
2023/12/16 06:19:13;;;;;;;14.20;3.80;;;;;;;4.46;100.00;101167.23;109013;1257;60352;-64
2023/12/16 06:22:01;;;;;;;14.60;3.20;;;;;;;4.48;100.00;101170.34;109065;1257;70554;-64
2023/12/16 06:24:49;;;;;;;13.20;2.80;;;;;;;4.47;100.00;101159.44;109169;1257;65874;-64
2023/12/16 06:27:37;;;;;;;13.40;3.30;;;;;;;4.50;100.00;101154.96;108965;1257;72790;-62
2023/12/16 06:30:25;;;;;;;12.20;2.90;;;;;;;4.51;100.00;101155.82;109104;1257;59381;-63
2023/12/16 06:33:13;;;;;;;10.00;2.60;;;;;;;4.50;100.00;101152.84;109136;1257;61354;-62
2023/12/16 06:36:02;;;;;;;16.90;3.00;;;;;;;4.51;100.00;101158.80;108863;1262;73346;-61
2023/12/16 06:38:50;;;;;;;15.40;3.00;;;;;;;4.53;100.00;101161.53;109075;1261;67896;-63
2023/12/16 06:41:38;;;;;;;14.60;3.10;;;;;;;4.56;100.00;101165.31;108966;1257;71714;-62
2023/12/16 06:44:26;;;;;;;10.10;2.40;;;;;;;4.57;100.00;101165.26;109129;1257;59315;-62
2023/12/16 06:47:13;;;;;;;12.30;2.80;;;;;;;4.57;100.00;101163.33;109025;1257;58752;-63
2023/12/16 06:50:01;;;;;;;11.20;2.50;;;;;;;4.57;100.00;101162.78;109036;1258;73677;-63
2023/12/16 06:52:49;;;;;;;9.90;2.80;;;;;;;4.57;100.00;101165.23;109059;1257;67867;-65
2023/12/16 06:55:37;;;;;;;15.00;3.60;;;;;;;4.57;100.00;101162.80;109027;1257;71121;-62
2023/12/16 06:58:25;;;;;;;11.70;2.90;;;;;;;4.58;100.00;101166.09;108972;1257;57936;-64
2023/12/16 07:01:13;;;;;;;15.10;3.30;;;;;;;4.61;100.00;101157.94;109087;1256;60247;-67
2023/12/16 07:04:01;;;;;;;10.30;2.50;;;;;;;4.62;100.00;101156.84;109113;1257;74258;-65
2023/12/16 07:06:48;;;;;;;11.60;3.00;;;;;;;4.62;100.00;101156.65;107639;1257;1002316;-64
2023/12/16 07:09:38;;;;;;;12.80;3.40;;;;;;;4.64;100.00;101155.01;109044;1256;72571;-63
2023/12/16 07:12:27;;;;;;;18.00;3.20;;;;;;;4.65;100.00;101159.69;109110;1257;57553;-61
2023/12/16 07:15:14;;;;;;;12.30;3.60;;;;;;;4.67;100.00;101155.95;109131;1258;58782;-62
2023/12/16 07:18:03;;;;;;;16.20;3.70;;;;;;;4.70;100.00;101158.30;109140;1257;74166;-64
2023/12/16 07:20:50;;;;;;;12.40;3.20;;;;;;;4.71;100.00;101160.54;109070;1257;67629;-66
2023/12/16 07:23:38;;;;;;;16.80;3.80;;;;;;;4.74;100.00;101158.52;109162;1258;74076;-63
2023/12/16 07:26:26;;;;;;;14.20;3.50;;;;;;;4.76;100.00;101165.65;109096;1256;59686;-62
2023/12/16 07:29:14;;;;;;;15.10;3.40;;;;;;;4.79;100.00;101162.71;109086;1257;60043;-66
2023/12/16 07:32:04;;;;;;;17.30;3.90;;;;;;;4.84;100.00;101157.81;109256;1256;72582;-66
2023/12/16 07:34:52;;;;;;;16.40;3.90;;;;;;;4.89;100.00;101161.31;108967;1257;67607;-62
2023/12/16 07:37:41;;;;;;;11.50;3.10;;;;;;;4.93;100.00;101161.52;109151;1256;73392;-67
2023/12/16 07:40:29;;;;;;;14.00;3.90;;;;;;;4.94;100.00;101157.41;109199;1257;58712;-64
2023/12/16 07:43:18;;;;;;;15.70;3.60;;;;;;;5.02;100.00;101150.46;109220;1257;60035;-62
2023/12/16 07:46:05;;;;;;;16.50;3.70;;;;;;;5.12;100.00;101154.30;109205;1257;72846;-62
2023/12/16 07:49:12;;;;;;;11.50;3.30;;;;;;;5.24;100.00;101154.71;109134;1257;66701;-65
2023/12/16 07:52:01;;;;;;;19.20;4.60;;;;;;;5.32;100.00;101149.17;109128;1257;72720;-63
2023/12/16 07:54:49;;;;;;;11.90;3.80;;;;;;;5.37;100.00;101150.73;109179;1257;59193;-64
2023/12/16 07:57:37;;;;;;;14.60;4.20;;;;;;;5.41;100.00;101162.35;109242;1257;60524;-63
2023/12/16 08:00:28;;;;;;;16.50;3.80;;;;;;;5.43;100.00;101163.67;109219;1257;74394;-63
2023/12/16 08:03:16;;;;;;;15.60;3.60;;;;;;;5.49;100.00;101161.68;109012;1256;68859;-62
2023/12/16 08:06:05;;;;;;;11.50;3.50;;;;;;;5.47;100.00;101150.71;109257;1257;71196;-63
2023/12/16 08:08:52;;;;;;;11.40;3.80;;;;;;;5.43;100.00;101153.81;109112;1257;60199;-63
2023/12/16 08:11:40;;;;;;;13.00;3.30;;;;;;;5.44;100.00;101153.95;109199;1256;61193;-62
2023/12/16 08:14:28;;;;;;;13.90;4.10;;;;;;;5.43;100.00;101157.69;109211;1257;73092;-62
2023/12/16 08:17:15;;;;;;;11.80;3.20;;;;;;;5.43;100.00;101159.46;109205;1257;67874;-63
2023/12/16 08:20:05;;;;;;;11.20;3.00;;;;;;;5.44;100.00;101165.23;109085;1257;74036;-64
2023/12/16 08:22:56;;;;;;;12.90;3.50;;;;;;;5.45;100.00;101164.13;109051;1257;59251;-66
2023/12/16 08:25:47;;;;;;;10.80;2.60;;;;;;;5.47;100.00;101160.02;109203;1256;59481;-62
2023/12/16 08:28:42;;;;;;;10.40;3.40;;;;;;;5.48;100.00;101162.45;109030;1257;72688;-65
2023/12/16 08:31:30;;;;;;;9.30;2.80;;;;;;;5.48;100.00;101167.53;109068;1260;68877;-66
2023/12/16 08:34:19;;;;;;;12.10;3.30;;;;;;;5.51;100.00;101166.20;109207;1256;73391;-63
2023/12/16 08:37:08;;;;;;;13.70;4.00;;;;;;;5.56;100.00;101171.30;109230;1257;57649;-68
2023/12/16 08:39:56;;;;;;;10.90;3.20;;;;;;;5.58;100.00;101178.96;109162;1256;58206;-67
2023/12/16 08:42:44;;;;;;;11.00;3.30;;;;;;;5.58;100.00;101180.53;109077;1260;73852;-62
2023/12/16 08:45:33;;;;;;;13.80;3.30;;;;;;;5.57;100.00;101186.36;109222;1257;66393;-64
2023/12/16 08:48:20;;;;;;;8.30;2.60;;;;;;;5.58;100.00;101191.09;109053;1256;73255;-63
2023/12/16 08:51:08;;;;;;;8.40;3.20;;;;;;;5.54;100.00;101190.73;109167;1257;59497;-62
2023/12/16 08:53:55;;;;;;;8.50;2.80;;;;;;;5.49;100.00;101183.02;109139;1256;60367;-63
2023/12/16 08:56:43;;;;;;;8.80;2.90;;;;;;;5.47;100.00;101192.95;109147;1257;71468;-65
2023/12/16 08:59:31;;;;;;;9.10;3.20;;;;;;;5.46;100.00;101194.02;109150;1256;67767;-65
2023/12/16 09:02:21;;;;;;;10.40;3.00;;;;;;;5.44;100.00;101191.98;108969;1257;72470;-66
2023/12/16 09:05:09;;;;;;;10.40;3.40;;;;;;;5.44;100.00;101197.09;109055;1257;58037;-68
2023/12/16 09:07:57;;;;;;;11.30;3.90;;;;;;;5.45;100.00;101197.23;109055;1257;58716;-66
2023/12/16 09:10:45;;;;;;;9.10;3.10;;;;;;;5.48;100.00;101201.70;109097;1257;71785;-64
2023/12/16 09:13:33;;;;;;;9.10;2.90;;;;;;;5.50;100.00;101198.11;109154;1257;65439;-62
2023/12/16 09:16:21;;;;;;;10.00;3.00;;;;;;;5.52;100.00;101193.96;109122;1257;71314;-65
2023/12/16 09:19:11;;;;;;;9.40;3.60;;;;;;;5.54;100.00;101201.30;109229;1256;59912;-64
2023/12/16 09:22:00;;;;;;;9.50;3.20;;;;;;;5.50;100.00;101199.67;109132;1257;59022;-66
2023/12/16 09:24:48;;;;;;;11.90;3.60;;;;;;;5.47;100.00;101193.48;108951;1256;70502;-66
2023/12/16 09:27:37;;;;;;;11.40;3.50;;;;;;;5.52;100.00;101198.54;109058;1257;67777;-62
2023/12/16 09:30:25;;;;;;;9.40;3.10;;;;;;;5.55;100.00;101201.23;109177;1257;72757;-64
2023/12/16 09:33:13;;;;;;;11.50;3.70;;;;;;;5.60;100.00;101200.53;109052;1256;59501;-64
2023/12/16 09:36:01;;;;;;;12.00;3.00;;;;;;;5.63;100.00;101200.94;109068;1257;60153;-62
2023/12/16 09:38:49;;;;;;;11.60;3.60;;;;;;;5.64;100.00;101210.40;109125;1257;72956;-65
2023/12/16 09:41:42;;;;;;;11.80;3.60;;;;;;;5.66;100.00;101203.64;109185;1257;68174;-62
2023/12/16 09:44:39;;;;;;;11.60;3.70;;;;;;;5.67;100.00;101203.25;109038;1257;71104;-62
2023/12/16 09:47:26;;;;;;;14.00;3.50;;;;;;;5.65;100.00;101196.45;109102;1257;59413;-63
2023/12/16 09:50:15;;;;;;;11.30;3.10;;;;;;;5.60;100.00;101199.48;109181;1256;60068;-65
2023/12/16 09:53:06;;;;;;;11.00;3.40;;;;;;;5.52;100.00;101197.31;108974;1257;72762;-63
2023/12/16 09:55:54;;;;;;;12.00;3.60;;;;;;;5.48;100.00;101193.61;109141;1256;66393;-65
2023/12/16 09:58:43;;;;;;;15.10;4.00;;;;;;;5.45;100.00;101191.61;109029;1257;72376;-65
2023/12/16 10:01:31;;;;;;;14.20;3.90;;;;;;;5.40;100.00;101177.70;109098;1257;58208;-66
2023/12/16 10:04:22;;;;;;;12.60;3.30;;;;;;;5.38;100.00;101173.38;109110;1257;60542;-64
2023/12/16 10:07:10;;;;;;;10.10;2.70;;;;;;;5.40;100.00;101181.56;109024;1257;72792;-64
2023/12/16 10:09:58;;;;;;;14.10;3.20;;;;;;;5.43;100.00;101184.61;109071;1260;68732;-63
2023/12/16 10:12:47;;;;;;;12.20;4.10;;;;;;;5.46;100.00;101181.54;109070;1257;71353;-61
2023/12/16 10:15:37;;;;;;;10.90;3.70;;;;;;;5.45;100.00;101174.52;109055;1257;59642;-65
2023/12/16 10:18:27;;;;;;;14.70;3.60;;;;;;;5.43;100.00;101173.52;109155;1257;59354;-62
2023/12/16 10:21:30;;;;;;;12.40;3.20;;;;;;;5.44;100.00;101169.79;109045;1257;73755;-64
2023/12/16 10:24:19;;;;;;;10.70;3.10;;;;;;;5.46;100.00;101179.73;109210;1257;67903;-63
2023/12/16 10:27:08;;;;;;;12.60;3.80;;;;;;;5.45;100.00;101178.20;108987;1257;72474;-64
2023/12/16 10:29:58;;;;;;;10.80;3.10;;;;;;;5.47;100.00;101168.46;109063;1257;60026;-62
2023/12/16 10:32:56;;;;;;;13.90;3.30;;;;;;;5.50;100.00;101154.45;109055;1257;59113;-65
2023/12/16 10:35:45;;;;;;;11.70;3.10;;;;;;;5.49;100.00;101155.36;108971;1257;72976;-64
2023/12/16 10:38:33;;;;;;;11.00;3.70;;;;;;;5.48;100.00;101148.89;108988;1257;66467;-63
2023/12/16 10:41:22;;;;;;;13.90;3.30;;;;;;;5.49;100.00;101139.71;109185;1257;71276;-66
2023/12/16 10:44:10;;;;;;;11.10;3.30;;;;;;;5.48;100.00;101138.34;109160;1257;58281;-64
2023/12/16 10:47:00;;;;;;;10.60;3.30;;;;;;;5.48;100.00;101136.73;109083;1257;60047;-65
2023/12/16 10:49:49;;;;;;;12.10;3.50;;;;;;;5.48;100.00;101133.05;109082;1257;71573;-64
2023/12/16 10:52:49;;;;;;;14.50;3.80;;;;;;;5.47;100.00;101133.07;109018;1257;67654;-64
2023/12/16 10:55:44;;;;;;;11.40;3.60;;;;;;;5.51;100.00;101132.42;108946;1257;72772;-61
2023/12/16 10:58:43;;;;;;;10.70;3.40;;;;;;;5.49;100.00;101128.08;108919;1257;60660;-65
2023/12/16 11:01:38;;;;;;;14.20;4.30;;;;;;;5.49;100.00;101130.35;108920;1257;58365;-67
2023/12/16 11:04:34;;;;;;;12.90;4.20;;;;;;;5.53;100.00;101127.58;109048;1257;73108;-66
2023/12/16 11:07:28;;;;;;;11.80;4.00;;;;;;;5.54;100.00;101125.07;108964;1257;67815;-63
2023/12/16 11:10:18;;;;;;;16.50;4.40;;;;;;;5.53;100.00;101124.06;108951;1257;73414;-66
2023/12/16 11:13:08;;;;;;;15.10;4.00;;;;;;;5.49;100.00;101123.30;108998;1258;59076;-70
2023/12/16 11:16:15;;;;;;;11.70;3.90;;;;;;;5.49;100.00;101119.80;109067;1257;60106;-65
2023/12/16 11:19:07;;;;;;;11.20;3.60;;;;;;;5.49;100.00;101121.76;109075;1257;72805;-63
2023/12/16 11:22:16;;;;;;;13.20;4.50;;;;;;;5.48;100.00;101126.55;108922;1257;69118;-63
2023/12/16 11:25:15;;;;;;;12.90;4.40;;;;;;;5.44;100.00;101116.98;109063;1257;71387;-65
2023/12/16 11:28:05;;;;;;;14.50;4.60;;;;;;;5.45;100.00;101109.91;109015;1257;59517;-61
2023/12/16 11:30:58;;;;;;;16.20;4.70;;;;;;;5.51;100.00;101109.87;109021;1257;61066;-65
2023/12/16 11:33:47;;;;;;;14.10;4.00;;;;;;;5.57;100.00;101097.48;109001;1257;73132;-62
2023/12/16 11:36:55;;;;;;;13.00;3.90;;;;;;;5.62;100.00;101087.59;108964;1260;66660;-65
2023/12/16 11:39:45;;;;;;;14.50;4.50;;;;;;;5.74;100.00;101079.52;109054;1257;72552;-62
2023/12/16 11:42:48;;;;;;;20.30;4.80;;;;;;;5.85;100.00;101073.64;109112;1258;58162;-64
2023/12/16 11:45:42;;;;;;;18.20;4.70;;;;;;;5.97;100.00;101062.39;109084;1257;58673;-63
2023/12/16 11:48:31;;;;;;;14.30;3.90;;;;;;;6.08;100.00;101058.75;108096;1257;1002134;-61
2023/12/16 11:51:20;;;;;;;14.60;3.90;;;;;;;6.14;100.00;101054.28;109045;1257;69073;-65
2023/12/16 11:54:11;;;;;;;13.70;3.10;;;;;;;6.16;100.00;101053.51;109053;1257;70977;-62
2023/12/16 11:56:59;;;;;;;12.00;3.10;;;;;;;6.13;100.00;101047.98;109055;1257;59573;-63
2023/12/16 11:59:48;;;;;;;14.20;3.40;;;;;;;6.09;100.00;101031.24;109066;1257;59025;-65
2023/12/16 12:02:36;;;;;;;15.80;3.60;;;;;;;6.07;100.00;101026.56;109070;1257;72979;-64
2023/12/16 12:05:24;;;;;;;13.50;3.50;;;;;;;6.07;100.00;101014.77;108961;1257;67895;-63
2023/12/16 12:08:12;;;;;;;12.40;3.50;;;;;;;6.07;100.00;101021.60;109166;1256;71651;-62
2023/12/16 12:11:00;;;;;;;15.60;3.60;;;;;;;6.03;100.00;101014.41;108979;1257;57859;-63
2023/12/16 12:13:52;;;;;;;14.90;3.50;;;;;;;5.98;100.00;101019.36;109086;1257;58760;-67
2023/12/16 12:16:40;;;;;;;12.80;3.40;;;;;;;5.96;100.00;101015.38;109152;1257;71803;-63
2023/12/16 12:19:29;;;;;;;16.10;3.50;;;;;;;5.91;100.00;101015.79;109093;1257;67672;-63
2023/12/16 12:22:20;;;;;;;16.30;3.90;;;;;;;5.87;100.00;101019.30;109164;1256;71996;-66
2023/12/16 12:25:08;;;;;;;11.20;3.70;;;;;;;5.82;100.00;101012.08;109036;1257;60347;-62
2023/12/16 12:27:56;;;;;;;15.30;3.10;;;;;;;5.80;100.00;101002.84;109191;1257;58992;-63
2023/12/16 12:30:44;;;;;;;12.50;3.40;;;;;;;5.76;100.00;101000.02;109160;1257;73207;-65
2023/12/16 12:33:33;;;;;;;15.40;3.40;;;;;;;5.75;100.00;100994.77;109213;1256;68919;-66
2023/12/16 12:36:21;;;;;;;14.80;4.10;;;;;;;5.75;100.00;100993.70;109006;1257;72397;-65
2023/12/16 12:39:21;;;;;;;15.50;3.90;;;;;;;5.76;100.00;100989.61;109081;1257;59276;-62
2023/12/16 12:42:09;;;;;;;11.10;3.30;;;;;;;5.77;100.00;100985.52;109101;1257;58040;-61
2023/12/16 12:44:58;;;;;;;12.70;3.70;;;;;;;5.79;100.00;100983.89;109073;1257;73074;-64
2023/12/16 12:47:46;;;;;;;12.50;3.70;;;;;;;5.80;100.00;100986.29;109092;1257;67116;-64